Time;durP1;ratioP1;P1;durP2;ratioP2;P2;SDS_P1;SDS_P2;PMS_P1;PMS_P2;Temp;Humidity;BMP_temperature;BMP_pressure;BME280_temperature;BME280_humidity;BME280_pressure;Samples;Min_cycle;Max_cycle;Signal;HPM_P1;HPM_P2
2021/01/02 00:00:57;;;;;;;128.00;46.80;;;;;;;0.09;86.84;99967.91;119898;1150;22884;-59
2021/01/02 00:03:56;;;;;;;127.73;49.43;;;;;;;0.08;86.73;99965.59;119913;1150;23623;-60
2021/01/02 00:06:51;;;;;;;133.67;47.10;;;;;;;0.07;86.73;99973.04;119965;1150;27630;-60
2021/01/02 00:09:25;;;;;;;135.63;47.73;;;;;;;0.06;86.38;99966.02;119574;1151;22934;-59
2021/01/02 00:12:21;;;;;;;136.67;46.13;;;;;;;0.08;87.03;99960.10;119724;1151;22923;-60
2021/01/02 00:15:05;;;;;;;117.70;43.30;;;;;;;0.08;86.54;99958.14;119971;1150;22946;-60
2021/01/02 00:18:00;;;;;;;125.10;45.20;;;;;;;0.08;86.82;99969.12;119934;1149;26391;-61
2021/01/02 00:20:49;;;;;;;123.47;44.10;;;;;;;0.07;86.48;99966.77;119867;1150;26115;-60
2021/01/02 00:23:36;;;;;;;125.07;47.03;;;;;;;0.08;86.91;99963.63;119941;1150;22937;-60
2021/01/02 00:26:15;;;;;;;135.55;45.10;;;;;;;0.08;87.03;99971.08;119961;1149;23153;-60
2021/01/02 00:28:49;;;;;;;132.50;47.70;;;;;;;0.07;86.99;99961.28;120029;1150;22910;-63
2021/01/02 00:32:02;;;;;;;118.23;44.40;;;;;;;0.07;86.26;99972.25;120049;1150;23028;-59
2021/01/02 00:35:09;;;;;;;127.30;45.00;;;;;;;0.05;86.35;99971.89;120165;1149;22944;-60
2021/01/02 00:37:41;;;;;;;125.97;46.27;;;;;;;0.04;86.35;99982.12;119921;1150;23051;-60
2021/01/02 00:40:17;;;;;;;136.97;47.03;;;;;;;0.06;86.85;99989.93;119860;1150;24592;-59
2021/01/02 00:42:49;;;;;;;117.60;43.95;;;;;;;0.05;86.38;99974.64;120096;1149;23052;-60
2021/01/02 00:45:22;;;;;;;118.25;43.75;;;;;;;0.02;86.05;99987.24;120123;1149;25986;-61
2021/01/02 00:47:53;;;;;;;122.37;44.03;;;;;;;0.00;86.56;99989.62;120131;1150;24588;-60
2021/01/02 00:50:27;;;;;;;117.67;43.20;;;;;;;0.01;86.83;99993.91;120229;1147;22913;-60
2021/01/02 00:53:26;;;;;;;119.07;41.50;;;;;;;0.00;86.02;99993.13;120260;1148;26083;-61
2021/01/02 00:56:29;;;;;;;124.53;44.77;;;;;;;-0.03;86.13;99995.92;120153;1147;22901;-61
2021/01/02 00:59:38;;;;;;;116.37;40.17;;;;;;;-0.11;86.08;99989.77;120266;1147;26073;-59
2021/01/02 01:02:43;;;;;;;123.43;42.80;;;;;;;-0.19;86.41;99993.77;120395;1147;22920;-62
2021/01/02 01:05:21;;;;;;;124.83;44.83;;;;;;;-0.22;86.10;99994.62;120146;1148;22926;-61
2021/01/02 01:07:55;;;;;;;137.93;45.03;;;;;;;-0.24;86.22;99993.47;120198;1148;22916;-61
2021/01/02 01:10:27;;;;;;;132.77;48.03;;;;;;;-0.23;86.29;99993.05;120519;1146;22938;-61
2021/01/02 01:13:06;;;;;;;135.95;44.75;;;;;;;-0.20;86.47;100002.42;120450;1147;26385;-61
2021/01/02 01:15:37;;;;;;;119.17;43.77;;;;;;;-0.19;86.70;100001.25;120226;1148;28420;-59
2021/01/02 01:18:23;;;;;;;;;;;;;;;-0.23;86.32;100012.25;120362;1147;22874;-60
2021/01/02 01:20:58;;;;;;;130.13;43.40;;;;;;;-0.29;86.65;100022.12;120363;1147;24398;-59
2021/01/02 01:23:48;;;;;;;117.60;44.90;;;;;;;-0.31;86.95;100015.52;120384;1147;22911;-61
2021/01/02 01:26:44;;;;;;;127.02;44.70;;;;;;;-0.33;86.45;100018.66;120153;1148;22925;-60
2021/01/02 01:29:26;;;;;;;131.67;47.10;;;;;;;-0.33;86.48;100026.13;120574;1147;23047;-62
2021/01/02 01:31:59;;;;;;;122.07;45.00;;;;;;;-0.36;86.31;100027.72;120118;1148;23018;-60
2021/01/02 01:34:34;;;;;;;125.27;45.03;;;;;;;-0.38;86.39;100016.37;120284;1147;22965;-61
2021/01/02 01:37:06;;;;;;;131.93;43.10;;;;;;;-0.36;86.28;100021.45;120169;1148;22938;-61
2021/01/02 01:39:40;;;;;;;132.60;45.50;;;;;;;-0.37;86.65;100025.36;120383;1147;22904;-61
2021/01/02 01:42:13;;;;;;;136.17;44.90;;;;;;;-0.39;86.45;100031.27;120225;1147;22978;-61
2021/01/02 01:44:54;;;;;;;131.20;44.75;;;;;;;-0.38;86.81;100032.84;120392;1147;22960;-61
2021/01/02 01:47:35;;;;;;;123.03;43.47;;;;;;;-0.35;86.40;100033.98;120337;1148;22938;-60
2021/01/02 01:50:24;;;;;;;126.80;44.13;;;;;;;-0.38;86.69;100034.80;120284;1148;22875;-60
2021/01/02 01:53:30;;;;;;;119.60;44.80;;;;;;;-0.39;86.57;100035.97;120591;1148;22939;-61
2021/01/02 01:56:09;;;;;;;111.30;42.13;;;;;;;-0.39;86.32;100039.50;120192;1148;22926;-60
2021/01/02 01:59:08;;;;;;;109.13;42.83;;;;;;;-0.39;86.42;100042.23;120591;1147;22913;-60
2021/01/02 02:01:44;;;;;;;113.70;39.00;;;;;;;-0.45;86.39;100038.39;120096;1147;26095;-60
2021/01/02 02:05:00;;;;;;;115.90;41.85;;;;;;;-0.51;86.21;100037.29;120140;1148;22913;-59
2021/01/02 02:07:45;;;;;;;98.60;40.20;;;;;;;-0.50;86.18;100038.86;119922;1150;22917;-60
2021/01/02 02:10:28;;;;;;;102.00;39.00;;;;;;;-0.48;86.29;100039.23;120227;1150;22982;-60
2021/01/02 02:13:00;;;;;;;110.65;38.85;;;;;;;-0.45;86.37;100037.61;120113;1150;27691;-60
2021/01/02 02:15:31;;;;;;;110.90;38.83;;;;;;;-0.44;86.39;100031.73;119900;1150;22925;-60
2021/01/02 02:18:14;;;;;;;103.03;40.07;;;;;;;-0.43;86.16;100027.79;120148;1149;23123;-61
2021/01/02 02:20:52;;;;;;;107.53;42.90;;;;;;;-0.44;86.82;100023.51;120227;1149;22936;-61
2021/01/02 02:23:27;;;;;;;101.10;38.05;;;;;;;-0.42;86.11;100025.83;119949;1150;24709;-61
2021/01/02 02:26:07;;;;;;;103.30;42.13;;;;;;;-0.47;85.95;100024.31;119967;1150;23174;-61
2021/01/02 02:29:08;;;;;;;112.30;41.53;;;;;;;-0.50;85.93;100022.41;120272;1150;22907;-59
2021/01/02 02:31:43;;;;;;;118.30;39.65;;;;;;;-0.52;86.42;100013.81;119924;1150;22944;-61
2021/01/02 02:34:14;;;;;;;101.03;39.13;;;;;;;-0.53;86.45;100025.17;119940;1150;26002;-60
2021/01/02 02:36:46;;;;;;;106.13;38.10;;;;;;;-0.57;86.44;100022.48;119968;1150;22948;-61
2021/01/02 02:39:16;;;;;;;98.10;37.05;;;;;;;-0.60;86.12;100028.02;119822;1150;22913;-61
2021/01/02 02:41:51;;;;;;;100.83;38.43;;;;;;;-0.61;86.75;100024.48;119939;1150;22925;-60
2021/01/02 02:44:25;;;;;;;101.80;38.97;;;;;;;-0.61;86.56;100023.70;120205;1148;23472;-60
2021/01/02 02:46:58;;;;;;;93.67;38.70;;;;;;;-0.60;86.30;100025.27;120284;1148;26044;-60
2021/01/02 02:49:32;;;;;;;94.00;36.10;;;;;;;-0.60;86.78;100022.53;120547;1147;23084;-60
2021/01/02 02:52:13;;;;;;;94.80;36.23;;;;;;;-0.59;86.29;100026.81;120183;1148;22945;-59
2021/01/02 02:54:42;;;;;;;;;;;;;;;-0.60;86.60;100030.75;120269;1148;22917;-61
2021/01/02 02:57:16;;;;;;;98.60;36.40;;;;;;;-0.62;85.98;100028.40;120173;1148;21569;-60
2021/01/02 02:59:46;;;;;;;92.40;36.67;;;;;;;-0.61;86.23;100020.95;120333;1147;22969;-60
2021/01/02 03:02:17;;;;;;;95.07;38.07;;;;;;;-0.62;86.78;100025.66;120097;1148;22923;-60
2021/01/02 03:04:47;;;;;;;96.20;35.43;;;;;;;-0.64;86.05;100043.72;120163;1148;26885;-60
2021/01/02 03:07:18;;;;;;;99.72;35.58;;;;;;;-0.65;85.87;100034.72;120411;1147;22924;-60
2021/01/02 03:09:47;;;;;;;;;;;;;;;-0.66;86.45;100035.12;120261;1147;22913;-61
2021/01/02 03:12:17;;;;;;;99.17;37.50;;;;;;;-0.69;85.78;100033.98;120159;1148;21605;-61
2021/01/02 03:14:57;;;;;;;95.43;35.03;;;;;;;-0.70;86.29;100031.66;120149;1147;22902;-60
2021/01/02 03:17:27;;;;;;;101.97;36.42;;;;;;;-0.69;85.90;100031.23;120190;1148;22942;-61
2021/01/02 03:19:57;;;;;;;96.78;36.17;;;;;;;-0.69;86.30;100027.70;120171;1148;23437;-60
2021/01/02 03:22:28;;;;;;;102.32;39.27;;;;;;;-0.69;86.72;100030.45;120308;1148;22921;-61
2021/01/02 03:24:58;;;;;;;93.70;36.05;;;;;;;-0.70;86.59;100032.41;120164;1148;23018;-61
2021/01/02 03:27:27;;;;;;;;;;;;;;;-0.68;85.91;100029.28;120172;1148;22989;-61
2021/01/02 03:29:57;;;;;;;100.77;37.63;;;;;;;-0.69;86.17;100035.94;120134;1148;24522;-60
2021/01/02 03:32:27;;;;;;;100.92;37.33;;;;;;;-0.77;85.89;100026.23;120130;1148;22945;-61
2021/01/02 03:34:57;;;;;;;101.87;40.53;;;;;;;-0.78;86.31;100022.70;120231;1148;23019;-61
2021/01/02 03:37:27;;;;;;;90.12;34.55;;;;;;;-0.79;86.76;100023.91;120218;1147;22938;-60
2021/01/02 03:39:57;;;;;;;107.20;40.40;;;;;;;-0.83;86.34;100015.70;120214;1148;24534;-59
2021/01/02 03:42:27;;;;;;;112.72;39.27;;;;;;;-0.83;86.42;100010.22;120171;1148;25958;-60
2021/01/02 03:44:56;;;;;;;;;;;;;;;-0.83;85.81;100021.18;120223;1148;22915;-60
2021/01/02 03:47:26;;;;;;;104.20;37.40;;;;;;;-0.87;86.50;100023.19;120270;1148;21565;-61
2021/01/02 03:49:57;;;;;;;103.78;38.55;;;;;;;-0.88;86.65;100020.86;120164;1148;22951;-61
2021/01/02 03:52:26;;;;;;;100.97;38.73;;;;;;;-0.87;86.43;100025.17;120158;1148;22974;-61
2021/01/02 03:54:57;;;;;;;112.03;39.50;;;;;;;-0.92;86.37;100025.59;120168;1148;25644;-61
2021/01/02 03:57:27;;;;;;;94.70;38.35;;;;;;;-0.95;85.73;100021.70;120084;1148;22925;-61
2021/01/02 03:59:58;;;;;;;101.60;38.50;;;;;;;-0.95;86.77;100024.44;120107;1148;22941;-60
2021/01/02 04:02:28;;;;;;;111.08;37.70;;;;;;;-0.97;86.38;100021.33;120163;1147;25957;-60
2021/01/02 04:04:58;;;;;;;94.97;36.25;;;;;;;-1.02;86.48;100021.79;120217;1147;22913;-60
2021/01/02 04:07:29;;;;;;;102.45;35.70;;;;;;;-1.04;85.51;100021.42;120228;1148;22941;-61
2021/01/02 04:10:00;;;;;;;97.00;34.00;;;;;;;-1.08;85.50;100020.67;120152;1148;22943;-60
2021/01/02 04:12:30;;;;;;;84.47;33.17;;;;;;;-1.11;86.15;100020.69;120244;1148;26395;-61
2021/01/02 04:15:01;;;;;;;104.10;34.65;;;;;;;-1.09;85.98;100018.32;120209;1148;22934;-60
2021/01/02 04:17:31;;;;;;;96.97;34.78;;;;;;;-1.11;86.22;100017.95;120290;1148;22916;-61
2021/01/02 04:20:04;;;;;;;100.63;34.50;;;;;;;-1.13;86.18;100018.36;120195;1148;26367;-61
2021/01/02 04:22:34;;;;;;;103.70;34.73;;;;;;;-1.17;86.32;100017.62;120291;1147;22939;-60
2021/01/02 04:25:05;;;;;;;;;;;;;;;-1.18;86.09;100009.81;120162;1148;24318;-60
2021/01/02 04:27:35;;;;;;;101.60;35.43;;;;;;;-1.27;85.26;100014.97;120324;1147;21705;-59
2021/01/02 04:30:07;;;;;;;104.32;35.98;;;;;;;-1.32;85.93;100024.39;120167;1148;22921;-60
2021/01/02 04:32:38;;;;;;;109.37;34.73;;;;;;;-1.32;85.83;100024.39;120394;1148;26098;-60
2021/01/02 04:35:10;;;;;;;117.17;39.70;;;;;;;-1.32;86.15;100032.61;120351;1147;22974;-60
2021/01/02 04:37:41;;;;;;;120.20;41.50;;;;;;;-1.34;86.28;100029.50;120583;1147;22955;-60
2021/01/02 04:40:14;;;;;;;117.80;40.03;;;;;;;-1.35;85.93;100027.95;120332;1148;22945;-60
2021/01/02 04:42:44;;;;;;;107.50;41.77;;;;;;;-1.33;86.82;100027.55;120270;1147;22920;-61
2021/01/02 04:45:15;;;;;;;109.32;41.58;;;;;;;-1.36;85.79;100028.34;120142;1148;22952;-61
2021/01/02 04:47:45;;;;;;;;;;;;;;;-1.39;86.40;100031.91;120311;1147;22946;-60
2021/01/02 04:50:15;;;;;;;111.27;40.57;;;;;;;-1.46;86.14;100029.20;120254;1147;21566;-60
2021/01/02 04:52:48;;;;;;;104.70;36.33;;;;;;;-1.46;86.11;100027.25;120091;1147;26351;-59
2021/01/02 04:55:20;;;;;;;92.73;33.43;;;;;;;-1.53;86.20;100035.51;120228;1147;24734;-60
2021/01/02 04:57:52;;;;;;;88.90;33.60;;;;;;;-1.54;86.56;100031.23;120320;1148;27682;-60
2021/01/02 05:00:26;;;;;;;95.60;32.53;;;;;;;-1.58;86.00;100035.17;120205;1148;23014;-60
2021/01/02 05:02:57;;;;;;;94.50;33.13;;;;;;;-1.65;86.52;100041.47;120268;1148;22934;-61
2021/01/02 05:05:28;;;;;;;105.43;35.20;;;;;;;-1.62;86.77;100039.89;120189;1148;22952;-61
2021/01/02 05:07:58;;;;;;;101.90;33.13;;;;;;;-1.65;85.65;100044.98;120269;1148;22973;-61
2021/01/02 05:10:27;;;;;;;;;;;;;;;-1.65;86.48;100057.89;120269;1147;22945;-60
2021/01/02 05:13:09;;;;;;;102.47;35.37;;;;;;;-1.67;85.70;100049.30;120102;1148;21572;-60
2021/01/02 05:15:41;;;;;;;95.53;34.80;;;;;;;-1.67;85.96;100046.56;120269;1148;26652;-60
2021/01/02 05:18:14;;;;;;;104.97;34.23;;;;;;;-1.67;86.57;100052.04;120348;1147;25967;-60
2021/01/02 05:20:46;;;;;;;88.30;34.07;;;;;;;-1.68;86.58;100047.76;120184;1147;22909;-61
2021/01/02 05:23:16;;;;;;;90.73;34.53;;;;;;;-1.70;86.55;100058.33;120124;1148;25964;-61
2021/01/02 05:25:46;;;;;;;84.85;33.33;;;;;;;-1.68;85.79;100064.18;120175;1148;22941;-59
2021/01/02 05:28:18;;;;;;;;;;;;;;;-1.67;85.95;100065.72;120290;1147;23077;-60
2021/01/02 05:30:48;;;;;;;90.83;32.77;;;;;;;-1.71;86.11;100068.48;120145;1147;25706;-59
2021/01/02 05:33:19;;;;;;;99.37;34.83;;;;;;;-1.71;85.83;100079.44;120261;1147;22924;-60
2021/01/02 05:35:49;;;;;;;90.05;32.85;;;;;;;-1.73;86.02;100073.59;120223;1148;22926;-61
2021/01/02 05:38:20;;;;;;;;;;;;;;;-1.72;86.50;100077.11;120186;1148;23010;-60
2021/01/02 05:40:52;;;;;;;82.95;31.50;;;;;;;-1.74;86.53;100080.22;120242;1147;21573;-61
2021/01/02 05:43:25;;;;;;;75.40;29.00;;;;;;;-1.76;86.43;100085.31;120631;1147;23242;-59
2021/01/02 05:45:57;;;;;;;83.63;32.37;;;;;;;-1.81;86.15;100072.07;120182;1148;23023;-59
2021/01/02 05:48:28;;;;;;;77.17;31.30;;;;;;;-1.82;85.70;100084.19;120312;1147;24575;-60
2021/01/02 05:51:00;;;;;;;86.47;31.07;;;;;;;-1.79;85.77;100082.61;120103;1148;22940;-59
2021/01/02 05:53:32;;;;;;;88.03;30.77;;;;;;;-1.82;85.46;100086.92;120362;1147;23044;-61
2021/01/02 05:56:05;;;;;;;82.13;33.03;;;;;;;-1.86;86.03;100088.11;120319;1147;26491;-59
2021/01/02 05:58:36;;;;;;;84.73;31.53;;;;;;;-1.85;85.77;100089.68;120239;1147;25954;-60
2021/01/02 06:01:13;;;;;;;82.23;31.80;;;;;;;-1.87;85.29;100087.35;120108;1148;24550;-60
2021/01/02 06:03:45;;;;;;;85.93;32.63;;;;;;;-1.89;85.81;100086.97;120191;1148;23089;-60
2021/01/02 06:06:17;;;;;;;88.43;33.73;;;;;;;-1.91;85.49;100086.59;120145;1146;25957;-59
2021/01/02 06:08:49;;;;;;;86.97;31.13;;;;;;;-1.90;85.71;100085.40;120234;1148;22973;-61
2021/01/02 06:11:21;;;;;;;91.97;30.23;;;;;;;-1.93;85.93;100091.69;120192;1147;23006;-60
2021/01/02 06:13:52;;;;;;;82.27;29.40;;;;;;;-1.97;86.18;100101.87;120246;1148;22940;-60
2021/01/02 06:16:28;;;;;;;84.43;30.73;;;;;;;-2.02;85.54;100101.48;120197;1147;23420;-60
2021/01/02 06:18:58;;;;;;;79.83;30.70;;;;;;;-2.03;85.63;100111.64;120325;1147;22905;-61
2021/01/02 06:21:31;;;;;;;87.62;30.02;;;;;;;-2.05;86.16;100113.23;120372;1148;22935;-60
2021/01/02 06:24:03;;;;;;;76.60;28.90;;;;;;;-2.07;85.30;100118.32;120229;1146;23084;-60
2021/01/02 06:26:34;;;;;;;84.33;32.07;;;;;;;-2.08;85.70;100114.02;120213;1148;22916;-61
2021/01/02 06:29:05;;;;;;;81.83;30.57;;;;;;;-2.07;85.44;100115.59;120220;1148;22942;-61
2021/01/02 06:31:37;;;;;;;85.80;30.80;;;;;;;-2.11;85.49;100123.78;120162;1147;22927;-61
2021/01/02 06:34:08;;;;;;;85.03;33.63;;;;;;;-2.14;85.41;100121.07;120131;1148;22887;-61
2021/01/02 06:36:40;;;;;;;89.70;35.90;;;;;;;-2.17;86.52;100130.84;120315;1147;22876;-60
2021/01/02 06:39:22;;;;;;;81.40;32.83;;;;;;;-2.18;86.44;100133.98;120231;1148;23017;-60
2021/01/02 06:41:54;;;;;;;89.67;35.30;;;;;;;-2.18;85.73;100131.25;120238;1147;22971;-60
2021/01/02 06:44:41;;;;;;;86.13;33.40;;;;;;;-2.17;86.51;100141.02;120583;1147;22917;-61
2021/01/02 06:47:21;;;;;;;92.33;35.57;;;;;;;-2.16;85.76;100135.15;120232;1147;23078;-61
2021/01/02 06:49:51;;;;;;;;;;;;;;;-2.15;85.79;100146.88;120228;1148;23021;-61
2021/01/02 06:52:32;;;;;;;95.53;35.43;;;;;;;-2.12;85.88;100135.13;120222;1148;21675;-60
2021/01/02 06:55:21;;;;;;;95.83;36.30;;;;;;;-2.13;86.20;100128.11;120366;1147;23905;-62
2021/01/02 06:58:13;;;;;;;92.25;36.25;;;;;;;-2.14;86.45;100135.53;120161;1148;22951;-62
2021/01/02 07:00:43;;;;;;;89.95;34.65;;;;;;;-2.12;86.24;100126.92;120163;1148;22886;-61
2021/01/02 07:03:44;;;;;;;97.27;37.80;;;;;;;-2.11;86.41;100123.03;120547;1147;26354;-62
2021/01/02 07:06:25;;;;;;;104.40;45.05;;;;;;;-2.10;85.88;100125.36;120340;1147;22929;-61
2021/01/02 07:08:57;;;;;;;105.33;41.83;;;;;;;-2.09;86.35;100134.35;120231;1147;22949;-62
2021/01/02 07:11:31;;;;;;;102.67;40.70;;;;;;;-2.09;85.80;100139.82;120138;1148;22941;-62
2021/01/02 07:14:20;;;;;;;102.70;41.55;;;;;;;-2.08;85.77;100152.30;120380;1147;22952;-62
2021/01/02 07:16:57;;;;;;;108.57;44.70;;;;;;;-2.08;86.00;100147.62;119948;1151;22910;-63
2021/01/02 07:19:48;;;;;;;109.20;46.83;;;;;;;-2.07;86.62;100151.14;120196;1149;22961;-63
2021/01/02 07:22:28;;;;;;;122.13;47.30;;;;;;;-2.05;86.46;100146.06;119815;1150;22944;-63
2021/01/02 07:25:09;;;;;;;118.47;45.15;;;;;;;-2.05;85.85;100144.08;120089;1149;27246;-62
2021/01/02 07:27:40;;;;;;;108.17;44.83;;;;;;;-2.03;86.34;100147.20;119996;1149;22954;-63
2021/01/02 07:30:13;;;;;;;112.37;44.97;;;;;;;-2.02;86.26;100150.72;119966;1150;27768;-60
2021/01/02 07:32:46;;;;;;;107.43;45.30;;;;;;;-2.01;86.50;100152.29;119999;1149;23331;-62
2021/01/02 07:35:19;;;;;;;123.83;48.90;;;;;;;-2.00;86.46;100148.36;120150;1149;22959;-62
2021/01/02 07:37:54;;;;;;;121.27;47.30;;;;;;;-1.99;85.89;100147.20;120125;1149;22961;-63
2021/01/02 07:40:23;;;;;;;132.60;53.83;;;;;;;-1.97;86.54;100148.38;119868;1150;23070;-62
2021/01/02 07:42:55;;;;;;;144.43;58.60;;;;;;;-1.94;86.61;100139.36;119949;1150;23030;-63
2021/01/02 07:45:27;;;;;;;120.50;51.70;;;;;;;-1.93;85.77;100142.88;120131;1150;25714;-62
2021/01/02 07:47:59;;;;;;;144.10;55.60;;;;;;;-1.92;86.30;100142.47;120055;1151;23362;-63
2021/01/02 07:50:31;;;;;;;222.05;97.25;;;;;;;-1.91;85.86;100154.20;120249;1149;27080;-61
2021/01/02 07:53:03;;;;;;;250.30;118.53;;;;;;;-1.88;86.37;100156.13;120400;1149;24750;-60
2021/01/02 07:55:35;;;;;;;195.77;92.00;;;;;;;-1.89;86.29;100160.84;120574;1148;22972;-60
2021/01/02 07:58:06;;;;;;;189.50;86.87;;;;;;;-1.87;86.34;100154.97;120765;1147;23045;-60
2021/01/02 08:00:36;;;;;;;173.77;81.83;;;;;;;-1.88;86.12;100154.18;120238;1148;22912;-61
2021/01/02 08:03:08;;;;;;;202.63;97.50;;;;;;;-1.85;85.50;100167.08;120140;1148;22939;-60
2021/01/02 08:05:39;;;;;;;211.00;97.77;;;;;;;-1.82;86.17;100168.25;120386;1147;26027;-61
2021/01/02 08:08:09;;;;;;;175.47;79.63;;;;;;;-1.80;86.07;100168.63;120337;1147;22912;-61
2021/01/02 08:10:43;;;;;;;156.03;66.93;;;;;;;-1.78;86.55;100169.77;120248;1147;22939;-60
2021/01/02 08:13:17;;;;;;;149.47;67.80;;;;;;;-1.75;86.32;100168.98;120178;1147;24487;-62
2021/01/02 08:15:53;;;;;;;134.30;56.17;;;;;;;-1.72;85.61;100165.44;120392;1147;24668;-63
2021/01/02 08:18:23;;;;;;;125.50;51.40;;;;;;;-1.68;85.90;100168.94;120173;1148;22910;-59
2021/01/02 08:21:01;;;;;;;132.30;52.70;;;;;;;-1.66;85.59;100165.83;120288;1147;25974;-60
2021/01/02 08:23:32;;;;;;;120.53;52.30;;;;;;;-1.63;86.54;100166.98;120258;1147;24332;-59
2021/01/02 08:26:02;;;;;;;116.15;47.60;;;;;;;-1.61;86.45;100170.11;120345;1147;22912;-61
2021/01/02 08:28:33;;;;;;;125.58;53.70;;;;;;;-1.56;85.96;100186.09;120170;1148;22922;-58
2021/01/02 08:31:05;;;;;;;136.90;59.67;;;;;;;-1.55;86.77;100177.48;120438;1147;22974;-59
2021/01/02 08:33:37;;;;;;;126.37;56.73;;;;;;;-1.53;86.36;100177.86;120386;1147;23356;-60
2021/01/02 08:36:14;;;;;;;123.23;54.47;;;;;;;-1.51;86.21;100185.70;120160;1148;22913;-62
2021/01/02 08:38:45;;;;;;;115.50;54.20;;;;;;;-1.49;85.86;100191.55;120287;1147;23574;-63
2021/01/02 08:41:21;;;;;;;126.60;55.17;;;;;;;-1.49;86.37;100191.55;120095;1148;22996;-63
2021/01/02 08:43:53;;;;;;;119.53;54.87;;;;;;;-1.48;86.59;100195.83;120213;1148;22952;-63
2021/01/02 08:46:24;;;;;;;143.63;62.97;;;;;;;-1.45;86.96;100189.58;120171;1148;22938;-60
2021/01/02 08:48:55;;;;;;;167.47;76.07;;;;;;;-1.42;86.34;100195.02;120278;1147;22948;-63
2021/01/02 08:51:26;;;;;;;200.10;99.72;;;;;;;-1.39;86.53;100196.98;120172;1148;22926;-62
2021/01/02 08:54:12;;;;;;;174.50;87.15;;;;;;;-1.36;86.54;100201.64;120334;1147;23049;-62
2021/01/02 08:56:43;;;;;;;145.20;70.50;;;;;;;-1.32;87.01;100199.66;120119;1148;22952;-63
2021/01/02 08:59:13;;;;;;;140.82;60.98;;;;;;;-1.28;86.12;100197.67;120229;1148;22909;-60
2021/01/02 09:01:44;;;;;;;114.20;50.10;;;;;;;-1.26;86.59;100195.31;120173;1146;22969;-64
2021/01/02 09:04:14;;;;;;;123.28;51.02;;;;;;;-1.23;86.50;100191.00;120292;1148;22916;-60
2021/01/02 09:06:45;;;;;;;128.10;54.17;;;;;;;-1.20;86.48;100192.95;120255;1148;22972;-60
2021/01/02 09:09:15;;;;;;;118.87;52.85;;;;;;;-1.17;85.87;100184.70;120164;1148;23002;-61
2021/01/02 09:11:48;;;;;;;118.10;50.35;;;;;;;-1.13;86.26;100185.46;120374;1147;22968;-62
2021/01/02 09:14:18;;;;;;;109.17;47.17;;;;;;;-1.09;86.02;100182.69;120227;1147;22960;-61
2021/01/02 09:17:00;;;;;;;105.80;44.60;;;;;;;-1.07;86.29;100183.85;120284;1147;25935;-61
2021/01/02 09:19:32;;;;;;;99.77;44.27;;;;;;;-1.08;85.86;100196.01;120261;1147;26085;-61
2021/01/02 09:22:03;;;;;;;103.77;44.13;;;;;;;-1.07;85.83;100197.55;120124;1148;23375;-62
2021/01/02 09:24:33;;;;;;;102.58;44.13;;;;;;;-1.07;86.38;100208.51;120148;1148;22916;-62
2021/01/02 09:27:03;;;;;;;101.80;44.63;;;;;;;-1.04;86.00;100202.24;120272;1148;22945;-61
2021/01/02 09:29:38;;;;;;;101.15;45.65;;;;;;;-0.99;86.73;100196.32;120191;1147;27323;-61
2021/01/02 09:32:12;;;;;;;113.27;46.90;;;;;;;-0.97;86.60;100201.39;120226;1147;23029;-66
2021/01/02 09:34:42;;;;;;;114.67;50.60;;;;;;;-0.94;86.36;100206.87;120006;1148;23014;-60
2021/01/02 09:37:12;;;;;;;127.55;50.95;;;;;;;-0.89;87.01;100208.41;120063;1148;22944;-60
2021/01/02 09:40:13;;;;;;;124.53;48.78;;;;;;;-0.84;86.36;100219.70;120104;1148;22913;-61
2021/01/02 09:42:43;;;;;;;118.17;49.67;;;;;;;-0.82;86.33;100225.56;120248;1147;26799;-61
2021/01/02 09:45:13;;;;;;;;;;;;;;;-0.78;86.37;100235.70;120328;1148;26974;-60
2021/01/02 09:47:44;;;;;;;157.78;66.47;;;;;;;-0.79;86.45;100234.16;121001;1147;24255;-60
2021/01/02 09:50:14;;;;;;;133.87;58.90;;;;;;;-0.77;86.38;100237.28;120112;1147;22945;-61
2021/01/02 09:52:44;;;;;;;123.87;55.50;;;;;;;-0.77;86.25;100250.98;120316;1148;23018;-61
2021/01/02 09:55:16;;;;;;;116.10;51.88;;;;;;;-0.75;87.03;100248.62;120194;1148;22949;-62
2021/01/02 09:57:47;;;;;;;117.00;52.37;;;;;;;-0.71;86.46;100244.68;120198;1147;27300;-60
2021/01/02 10:00:21;;;;;;;118.53;52.37;;;;;;;-0.66;86.74;100237.99;120215;1147;23500;-60
2021/01/02 10:02:51;;;;;;;110.80;50.85;;;;;;;-0.63;86.50;100246.18;120231;1148;27679;-60
2021/01/02 10:05:25;;;;;;;111.92;50.00;;;;;;;-0.61;87.06;100241.08;120138;1147;27056;-61
2021/01/02 10:07:55;;;;;;;117.30;48.95;;;;;;;-0.58;86.31;100244.98;120300;1147;22914;-61
2021/01/02 10:10:25;;;;;;;112.08;48.45;;;;;;;-0.58;86.51;100251.22;120166;1148;25893;-61
2021/01/02 10:12:56;;;;;;;119.20;50.35;;;;;;;-0.55;86.92;100244.16;120146;1148;22970;-60
2021/01/02 10:15:26;;;;;;;110.97;46.60;;;;;;;-0.53;85.97;100239.83;120175;1148;26104;-61
2021/01/02 10:17:57;;;;;;;118.10;49.60;;;;;;;-0.50;86.24;100238.25;119956;1148;23048;-61
2021/01/02 10:20:27;;;;;;;113.28;49.98;;;;;;;-0.44;86.93;100239.38;121420;1147;22913;-60
2021/01/02 10:22:57;;;;;;;118.27;51.03;;;;;;;-0.44;86.08;100240.16;122110;1147;22890;-61
2021/01/02 10:25:28;;;;;;;115.87;49.00;;;;;;;-0.43;85.87;100235.43;120407;1147;23244;-61
2021/01/02 10:27:58;;;;;;;112.17;47.57;;;;;;;-0.41;86.17;100233.06;120726;1147;22935;-61
2021/01/02 10:30:29;;;;;;;137.13;54.77;;;;;;;-0.39;86.43;100222.47;120191;1148;26354;-60
2021/01/02 10:33:00;;;;;;;139.25;57.62;;;;;;;-0.34;86.18;100216.55;120178;1147;24595;-61
2021/01/02 10:35:30;;;;;;;137.47;58.10;;;;;;;-0.28;86.32;100212.19;120177;1147;22920;-60
2021/01/02 10:38:00;;;;;;;130.50;55.30;;;;;;;-0.26;86.60;100199.63;120449;1147;25667;-61
2021/01/02 10:40:30;;;;;;;119.65;54.42;;;;;;;-0.22;86.46;100194.09;120310;1147;23103;-61
2021/01/02 10:43:01;;;;;;;122.98;57.15;;;;;;;-0.19;87.03;100185.06;120550;1147;22928;-61
2021/01/02 10:45:31;;;;;;;126.33;54.60;;;;;;;-0.17;87.02;100179.95;120306;1147;22966;-60
2021/01/02 10:48:01;;;;;;;122.72;55.45;;;;;;;-0.13;87.10;100180.69;120125;1148;22911;-61
2021/01/02 10:50:31;;;;;;;100.95;45.90;;;;;;;-0.08;86.42;100175.52;120308;1148;22974;-60
2021/01/02 10:53:01;;;;;;;109.17;49.48;;;;;;;-0.04;86.44;100169.98;120160;1147;22939;-62
2021/01/02 10:55:31;;;;;;;114.77;53.08;;;;;;;-0.01;86.63;100169.18;120130;1147;26624;-60
2021/01/02 10:58:01;;;;;;;110.17;49.75;;;;;;;0.00;86.64;100165.27;120167;1148;22896;-62
2021/01/02 11:00:31;;;;;;;105.85;46.75;;;;;;;0.05;86.90;100166.75;120266;1148;22904;-61
2021/01/02 11:03:01;;;;;;;87.67;38.83;;;;;;;0.08;86.66;100163.99;120456;1147;28658;-61
2021/01/02 11:05:32;;;;;;;101.87;44.23;;;;;;;0.10;86.27;100164.36;120224;1147;26667;-59
2021/01/02 11:08:02;;;;;;;93.10;41.37;;;;;;;0.10;85.93;100156.13;120486;1147;23012;-60
2021/01/02 11:10:32;;;;;;;92.53;41.50;;;;;;;0.13;86.37;100159.99;120281;1147;23025;-60
2021/01/02 11:13:03;;;;;;;90.47;40.13;;;;;;;0.14;85.89;100165.09;120198;1148;25935;-61
2021/01/02 11:15:33;;;;;;;95.10;41.10;;;;;;;0.17;86.74;100169.74;120347;1148;26814;-61
2021/01/02 11:18:05;;;;;;;94.57;40.77;;;;;;;0.19;86.57;100161.12;120201;1148;22924;-61
2021/01/02 11:20:35;;;;;;;98.80;42.27;;;;;;;0.21;86.44;100162.24;120420;1147;24586;-61
2021/01/02 11:23:05;;;;;;;101.40;40.20;;;;;;;0.23;86.56;100157.12;120711;1147;27247;-61
2021/01/02 11:25:35;;;;;;;101.22;43.42;;;;;;;0.27;86.17;100148.86;120197;1148;22925;-62
2021/01/02 11:28:06;;;;;;;;;;;;;;;0.29;86.30;100146.48;120278;1148;22936;-63
2021/01/02 11:30:36;;;;;;;111.85;47.65;;;;;;;0.28;86.32;100142.95;120149;1147;21702;-62
2021/01/02 11:33:07;;;;;;;112.52;48.40;;;;;;;0.29;85.95;100139.00;120154;1147;29234;-61
2021/01/02 11:35:38;;;;;;;112.33;49.90;;;;;;;0.30;86.09;100134.29;120233;1147;22914;-63